sensor_id;sensor_type;location;lat;lon;timestamp;P1;durP1;ratioP1;P2;durP2;ratioP2
7703;SDS011;3894;49.700;10.770;2022-12-16T00:01:54;16.77;;;5.50;;
7703;SDS011;3894;49.700;10.770;2022-12-16T00:04:19;15.20;;;5.90;;
7703;SDS011;3894;49.700;10.770;2022-12-16T00:06:45;14.88;;;5.30;;
7703;SDS011;3894;49.700;10.770;2022-12-16T00:09:11;16.23;;;5.30;;
7703;SDS011;3894;49.700;10.770;2022-12-16T00:11:36;17.05;;;5.72;;
7703;SDS011;3894;49.700;10.770;2022-12-16T00:14:02;10.73;;;4.28;;
7703;SDS011;3894;49.700;10.770;2022-12-16T00:16:28;11.70;;;4.43;;
7703;SDS011;3894;49.700;10.770;2022-12-16T00:18:54;13.18;;;4.25;;
7703;SDS011;3894;49.700;10.770;2022-12-16T00:21:19;11.00;;;4.75;;
7703;SDS011;3894;49.700;10.770;2022-12-16T00:23:45;13.15;;;5.57;;
7703;SDS011;3894;49.700;10.770;2022-12-16T00:26:12;15.15;;;5.68;;
7703;SDS011;3894;49.700;10.770;2022-12-16T00:28:38;14.77;;;4.10;;
7703;SDS011;3894;49.700;10.770;2022-12-16T00:31:04;11.98;;;4.45;;
7703;SDS011;3894;49.700;10.770;2022-12-16T00:33:30;13.07;;;4.53;;
7703;SDS011;3894;49.700;10.770;2022-12-16T00:35:57;15.55;;;4.30;;
7703;SDS011;3894;49.700;10.770;2022-12-16T00:38:23;12.95;;;4.93;;
7703;SDS011;3894;49.700;10.770;2022-12-16T00:40:50;13.23;;;5.57;;
7703;SDS011;3894;49.700;10.770;2022-12-16T00:43:15;12.10;;;5.07;;
7703;SDS011;3894;49.700;10.770;2022-12-16T00:45:41;14.00;;;4.45;;
7703;SDS011;3894;49.700;10.770;2022-12-16T00:48:07;13.88;;;4.57;;
7703;SDS011;3894;49.700;10.770;2022-12-16T00:50:33;12.10;;;4.65;;
7703;SDS011;3894;49.700;10.770;2022-12-16T00:53:00;14.20;;;4.50;;
7703;SDS011;3894;49.700;10.770;2022-12-16T00:55:25;10.32;;;3.65;;
7703;SDS011;3894;49.700;10.770;2022-12-16T00:57:51;13.25;;;4.47;;
7703;SDS011;3894;49.700;10.770;2022-12-16T01:00:17;16.00;;;5.15;;
7703;SDS011;3894;49.700;10.770;2022-12-16T01:02:44;12.43;;;4.63;;
7703;SDS011;3894;49.700;10.770;2022-12-16T01:05:12;11.95;;;4.13;;
7703;SDS011;3894;49.700;10.770;2022-12-16T01:07:40;8.00;;;3.80;;
7703;SDS011;3894;49.700;10.770;2022-12-16T01:10:07;13.30;;;4.88;;
7703;SDS011;3894;49.700;10.770;2022-12-16T01:12:33;13.20;;;4.22;;
7703;SDS011;3894;49.700;10.770;2022-12-16T01:14:59;15.45;;;5.57;;
7703;SDS011;3894;49.700;10.770;2022-12-16T01:17:25;11.93;;;4.13;;
7703;SDS011;3894;49.700;10.770;2022-12-16T01:19:52;9.68;;;3.38;;
7703;SDS011;3894;49.700;10.770;2022-12-16T01:22:18;11.20;;;4.78;;
7703;SDS011;3894;49.700;10.770;2022-12-16T01:24:45;11.35;;;4.07;;
7703;SDS011;3894;49.700;10.770;2022-12-16T01:27:11;14.55;;;4.07;;
7703;SDS011;3894;49.700;10.770;2022-12-16T01:29:36;15.57;;;5.28;;
7703;SDS011;3894;49.700;10.770;2022-12-16T01:32:03;12.10;;;5.03;;
7703;SDS011;3894;49.700;10.770;2022-12-16T01:34:29;15.32;;;5.10;;
7703;SDS011;3894;49.700;10.770;2022-12-16T01:36:54;11.77;;;4.20;;
7703;SDS011;3894;49.700;10.770;2022-12-16T01:39:20;11.77;;;5.10;;
7703;SDS011;3894;49.700;10.770;2022-12-16T01:41:46;12.70;;;4.82;;
7703;SDS011;3894;49.700;10.770;2022-12-16T01:44:21;12.85;;;4.28;;
7703;SDS011;3894;49.700;10.770;2022-12-16T01:46:49;12.57;;;5.00;;
7703;SDS011;3894;49.700;10.770;2022-12-16T01:49:40;12.20;;;3.22;;
7703;SDS011;3894;49.700;10.770;2022-12-16T01:52:10;12.80;;;5.18;;
7703;SDS011;3894;49.700;10.770;2022-12-16T01:54:42;17.17;;;4.82;;
7703;SDS011;3894;49.700;10.770;2022-12-16T01:57:14;11.07;;;3.83;;
7703;SDS011;3894;49.700;10.770;2022-12-16T01:59:46;10.52;;;4.18;;
7703;SDS011;3894;49.700;10.770;2022-12-16T02:02:15;10.68;;;4.03;;
7703;SDS011;3894;49.700;10.770;2022-12-16T02:04:40;13.77;;;5.00;;
7703;SDS011;3894;49.700;10.770;2022-12-16T02:07:29;13.35;;;4.18;;
7703;SDS011;3894;49.700;10.770;2022-12-16T02:09:55;12.25;;;4.20;;
7703;SDS011;3894;49.700;10.770;2022-12-16T02:15:21;10.00;;;3.80;;
7703;SDS011;3894;49.700;10.770;2022-12-16T02:17:52;10.73;;;4.80;;
7703;SDS011;3894;49.700;10.770;2022-12-16T02:23:39;12.82;;;4.45;;
7703;SDS011;3894;49.700;10.770;2022-12-16T02:32:20;14.25;;;4.30;;
7703;SDS011;3894;49.700;10.770;2022-12-16T02:37:51;17.05;;;5.60;;
7703;SDS011;3894;49.700;10.770;2022-12-16T02:40:54;11.07;;;3.38;;
7703;SDS011;3894;49.700;10.770;2022-12-16T02:46:14;11.85;;;5.05;;
7703;SDS011;3894;49.700;10.770;2022-12-16T02:48:41;14.63;;;4.35;;
7703;SDS011;3894;49.700;10.770;2022-12-16T02:51:07;9.55;;;3.97;;
7703;SDS011;3894;49.700;10.770;2022-12-16T02:53:34;14.05;;;4.53;;
7703;SDS011;3894;49.700;10.770;2022-12-16T03:01:45;11.30;;;4.28;;
7703;SDS011;3894;49.700;10.770;2022-12-16T03:04:34;10.73;;;3.60;;
7703;SDS011;3894;49.700;10.770;2022-12-16T03:07:05;12.80;;;4.75;;
7703;SDS011;3894;49.700;10.770;2022-12-16T03:09:34;9.38;;;3.33;;
7703;SDS011;3894;49.700;10.770;2022-12-16T03:12:03;9.88;;;4.03;;
7703;SDS011;3894;49.700;10.770;2022-12-16T03:14:33;9.48;;;3.60;;
7703;SDS011;3894;49.700;10.770;2022-12-16T03:17:00;10.40;;;3.38;;
7703;SDS011;3894;49.700;10.770;2022-12-16T03:19:28;12.38;;;4.28;;
7703;SDS011;3894;49.700;10.770;2022-12-16T03:21:57;10.98;;;3.60;;
7703;SDS011;3894;49.700;10.770;2022-12-16T03:24:24;11.05;;;4.38;;
7703;SDS011;3894;49.700;10.770;2022-12-16T03:27:03;11.75;;;3.60;;
7703;SDS011;3894;49.700;10.770;2022-12-16T03:29:40;10.68;;;3.58;;
7703;SDS011;3894;49.700;10.770;2022-12-16T03:35:35;13.15;;;3.78;;
7703;SDS011;3894;49.700;10.770;2022-12-16T03:38:07;14.45;;;4.45;;
7703;SDS011;3894;49.700;10.770;2022-12-16T03:40:35;9.98;;;3.63;;
7703;SDS011;3894;49.700;10.770;2022-12-16T03:43:05;8.23;;;2.75;;
7703;SDS011;3894;49.700;10.770;2022-12-16T03:45:34;12.50;;;4.03;;
7703;SDS011;3894;49.700;10.770;2022-12-16T03:48:02;9.75;;;3.33;;
7703;SDS011;3894;49.700;10.770;2022-12-16T03:50:31;12.07;;;3.25;;
7703;SDS011;3894;49.700;10.770;2022-12-16T03:52:58;10.48;;;4.10;;
7703;SDS011;3894;49.700;10.770;2022-12-16T03:55:24;11.73;;;3.10;;
7703;SDS011;3894;49.700;10.770;2022-12-16T03:57:50;9.63;;;3.90;;
7703;SDS011;3894;49.700;10.770;2022-12-16T04:00:15;8.10;;;3.03;;
7703;SDS011;3894;49.700;10.770;2022-12-16T04:02:42;9.90;;;3.33;;
7703;SDS011;3894;49.700;10.770;2022-12-16T04:05:08;10.48;;;3.30;;
7703;SDS011;3894;49.700;10.770;2022-12-16T04:07:34;13.55;;;4.30;;
7703;SDS011;3894;49.700;10.770;2022-12-16T04:10:00;10.00;;;3.28;;
7703;SDS011;3894;49.700;10.770;2022-12-16T04:12:26;13.00;;;3.60;;
7703;SDS011;3894;49.700;10.770;2022-12-16T04:15:10;10.15;;;3.55;;
7703;SDS011;3894;49.700;10.770;2022-12-16T04:17:54;11.00;;;3.28;;
7703;SDS011;3894;49.700;10.770;2022-12-16T04:20:41;9.25;;;2.95;;
7703;SDS011;3894;49.700;10.770;2022-12-16T04:23:28;9.90;;;3.05;;
7703;SDS011;3894;49.700;10.770;2022-12-16T04:26:14;14.30;;;4.50;;
7703;SDS011;3894;49.700;10.770;2022-12-16T04:28:40;11.13;;;4.53;;
7703;SDS011;3894;49.700;10.770;2022-12-16T04:31:06;10.05;;;3.58;;
7703;SDS011;3894;49.700;10.770;2022-12-16T04:33:32;10.57;;;4.30;;
7703;SDS011;3894;49.700;10.770;2022-12-16T04:36:16;12.40;;;4.13;;
7703;SDS011;3894;49.700;10.770;2022-12-16T04:39:01;10.20;;;4.10;;
7703;SDS011;3894;49.700;10.770;2022-12-16T04:41:45;11.48;;;4.55;;
7703;SDS011;3894;49.700;10.770;2022-12-16T04:44:30;12.85;;;4.55;;
7703;SDS011;3894;49.700;10.770;2022-12-16T04:47:14;9.30;;;3.42;;
7703;SDS011;3894;49.700;10.770;2022-12-16T04:49:58;9.73;;;3.72;;
7703;SDS011;3894;49.700;10.770;2022-12-16T04:52:42;11.10;;;4.55;;
7703;SDS011;3894;49.700;10.770;2022-12-16T04:55:26;13.50;;;4.65;;
7703;SDS011;3894;49.700;10.770;2022-12-16T04:58:10;10.00;;;4.10;;
7703;SDS011;3894;49.700;10.770;2022-12-16T05:00:55;13.85;;;5.07;;
7703;SDS011;3894;49.700;10.770;2022-12-16T05:03:39;12.25;;;5.45;;
7703;SDS011;3894;49.700;10.770;2022-12-16T05:06:23;11.40;;;5.63;;
7703;SDS011;3894;49.700;10.770;2022-12-16T05:09:07;14.05;;;5.20;;
7703;SDS011;3894;49.700;10.770;2022-12-16T05:11:51;13.43;;;5.45;;
7703;SDS011;3894;49.700;10.770;2022-12-16T05:14:36;13.23;;;5.32;;
7703;SDS011;3894;49.700;10.770;2022-12-16T05:17:21;12.18;;;4.15;;
7703;SDS011;3894;49.700;10.770;2022-12-16T05:20:05;13.02;;;4.68;;
7703;SDS011;3894;49.700;10.770;2022-12-16T05:22:50;13.27;;;4.63;;
7703;SDS011;3894;49.700;10.770;2022-12-16T05:25:37;15.07;;;5.50;;
7703;SDS011;3894;49.700;10.770;2022-12-16T05:28:21;12.68;;;4.85;;
7703;SDS011;3894;49.700;10.770;2022-12-16T05:31:05;13.02;;;4.47;;
7703;SDS011;3894;49.700;10.770;2022-12-16T05:33:49;16.88;;;5.13;;
7703;SDS011;3894;49.700;10.770;2022-12-16T05:36:33;12.80;;;5.70;;
7703;SDS011;3894;49.700;10.770;2022-12-16T05:39:18;11.02;;;4.53;;
7703;SDS011;3894;49.700;10.770;2022-12-16T05:42:02;13.50;;;5.00;;
7703;SDS011;3894;49.700;10.770;2022-12-16T05:44:46;16.88;;;5.72;;
7703;SDS011;3894;49.700;10.770;2022-12-16T05:47:30;15.82;;;6.25;;
7703;SDS011;3894;49.700;10.770;2022-12-16T05:50:14;10.02;;;3.67;;
7703;SDS011;3894;49.700;10.770;2022-12-16T05:52:58;13.10;;;4.85;;
7703;SDS011;3894;49.700;10.770;2022-12-16T05:55:42;12.85;;;4.85;;
7703;SDS011;3894;49.700;10.770;2022-12-16T05:58:27;15.70;;;5.25;;
7703;SDS011;3894;49.700;10.770;2022-12-16T06:01:11;12.20;;;5.05;;
7703;SDS011;3894;49.700;10.770;2022-12-16T06:03:56;16.40;;;6.40;;
7703;SDS011;3894;49.700;10.770;2022-12-16T06:06:41;12.02;;;5.55;;
7703;SDS011;3894;49.700;10.770;2022-12-16T06:09:25;15.88;;;5.28;;
7703;SDS011;3894;49.700;10.770;2022-12-16T06:12:09;12.32;;;5.90;;
7703;SDS011;3894;49.700;10.770;2022-12-16T06:14:53;14.90;;;6.00;;
7703;SDS011;3894;49.700;10.770;2022-12-16T06:17:40;13.70;;;5.18;;
7703;SDS011;3894;49.700;10.770;2022-12-16T06:20:25;16.80;;;6.13;;
7703;SDS011;3894;49.700;10.770;2022-12-16T06:23:09;14.05;;;5.65;;
7703;SDS011;3894;49.700;10.770;2022-12-16T06:25:53;16.48;;;5.68;;
7703;SDS011;3894;49.700;10.770;2022-12-16T06:28:38;11.90;;;5.07;;
7703;SDS011;3894;49.700;10.770;2022-12-16T06:31:22;13.27;;;5.95;;
7703;SDS011;3894;49.700;10.770;2022-12-16T06:34:06;13.85;;;4.57;;
7703;SDS011;3894;49.700;10.770;2022-12-16T06:36:50;13.82;;;6.55;;
7703;SDS011;3894;49.700;10.770;2022-12-16T06:39:34;13.05;;;4.95;;
7703;SDS011;3894;49.700;10.770;2022-12-16T06:42:18;12.63;;;5.72;;
7703;SDS011;3894;49.700;10.770;2022-12-16T06:45:02;16.88;;;5.43;;
7703;SDS011;3894;49.700;10.770;2022-12-16T06:47:46;13.45;;;4.93;;
7703;SDS011;3894;49.700;10.770;2022-12-16T06:50:30;12.02;;;4.22;;
7703;SDS011;3894;49.700;10.770;2022-12-16T06:53:14;14.00;;;6.63;;
7703;SDS011;3894;49.700;10.770;2022-12-16T06:55:58;15.60;;;5.90;;
7703;SDS011;3894;49.700;10.770;2022-12-16T06:58:42;15.27;;;5.55;;
7703;SDS011;3894;49.700;10.770;2022-12-16T07:01:27;14.85;;;6.82;;
7703;SDS011;3894;49.700;10.770;2022-12-16T07:04:11;11.18;;;4.68;;
7703;SDS011;3894;49.700;10.770;2022-12-16T07:06:55;16.27;;;5.53;;
7703;SDS011;3894;49.700;10.770;2022-12-16T07:09:39;14.48;;;5.03;;
7703;SDS011;3894;49.700;10.770;2022-12-16T07:12:23;14.90;;;5.10;;
7703;SDS011;3894;49.700;10.770;2022-12-16T07:15:07;15.50;;;4.78;;
7703;SDS011;3894;49.700;10.770;2022-12-16T07:17:52;10.73;;;4.60;;
7703;SDS011;3894;49.700;10.770;2022-12-16T07:20:36;11.90;;;4.65;;
7703;SDS011;3894;49.700;10.770;2022-12-16T07:23:20;12.68;;;4.88;;
7703;SDS011;3894;49.700;10.770;2022-12-16T07:26:04;6.75;;;1.80;;
7703;SDS011;3894;49.700;10.770;2022-12-16T07:28:48;13.45;;;4.72;;
7703;SDS011;3894;49.700;10.770;2022-12-16T07:31:32;14.23;;;4.50;;
7703;SDS011;3894;49.700;10.770;2022-12-16T07:34:16;13.30;;;5.18;;
7703;SDS011;3894;49.700;10.770;2022-12-16T07:37:00;11.60;;;4.50;;
7703;SDS011;3894;49.700;10.770;2022-12-16T07:39:44;11.10;;;4.43;;
7703;SDS011;3894;49.700;10.770;2022-12-16T07:42:28;11.40;;;4.03;;
7703;SDS011;3894;49.700;10.770;2022-12-16T07:45:12;12.70;;;5.65;;
7703;SDS011;3894;49.700;10.770;2022-12-16T07:47:56;11.55;;;4.70;;
7703;SDS011;3894;49.700;10.770;2022-12-16T07:50:40;13.70;;;4.65;;
7703;SDS011;3894;49.700;10.770;2022-12-16T07:53:25;15.40;;;5.82;;
7703;SDS011;3894;49.700;10.770;2022-12-16T07:56:09;11.27;;;5.30;;
7703;SDS011;3894;49.700;10.770;2022-12-16T07:58:53;10.73;;;3.80;;
7703;SDS011;3894;49.700;10.770;2022-12-16T08:01:51;11.82;;;4.50;;
7703;SDS011;3894;49.700;10.770;2022-12-16T08:04:35;13.73;;;5.50;;
7703;SDS011;3894;49.700;10.770;2022-12-16T08:07:19;17.38;;;5.05;;
7703;SDS011;3894;49.700;10.770;2022-12-16T08:10:03;15.35;;;5.68;;
7703;SDS011;3894;49.700;10.770;2022-12-16T08:12:48;12.20;;;5.00;;
7703;SDS011;3894;49.700;10.770;2022-12-16T08:15:32;13.57;;;4.68;;
7703;SDS011;3894;49.700;10.770;2022-12-16T08:18:16;12.15;;;5.97;;
7703;SDS011;3894;49.700;10.770;2022-12-16T08:21:00;14.02;;;5.38;;
7703;SDS011;3894;49.700;10.770;2022-12-16T08:23:44;10.52;;;4.80;;
7703;SDS011;3894;49.700;10.770;2022-12-16T08:26:28;13.60;;;4.82;;
7703;SDS011;3894;49.700;10.770;2022-12-16T08:29:13;12.50;;;4.55;;
7703;SDS011;3894;49.700;10.770;2022-12-16T08:31:57;13.82;;;5.10;;
7703;SDS011;3894;49.700;10.770;2022-12-16T08:34:41;13.73;;;5.15;;
7703;SDS011;3894;49.700;10.770;2022-12-16T08:37:25;13.80;;;5.05;;
7703;SDS011;3894;49.700;10.770;2022-12-16T08:40:09;13.15;;;5.10;;
7703;SDS011;3894;49.700;10.770;2022-12-16T08:42:54;15.25;;;5.00;;
7703;SDS011;3894;49.700;10.770;2022-12-16T08:45:40;14.95;;;5.90;;
7703;SDS011;3894;49.700;10.770;2022-12-16T08:48:24;13.55;;;5.80;;
7703;SDS011;3894;49.700;10.770;2022-12-16T08:51:08;14.63;;;5.43;;
7703;SDS011;3894;49.700;10.770;2022-12-16T08:53:53;13.60;;;5.13;;
7703;SDS011;3894;49.700;10.770;2022-12-16T08:56:38;12.68;;;5.00;;
7703;SDS011;3894;49.700;10.770;2022-12-16T08:59:22;12.48;;;5.03;;
7703;SDS011;3894;49.700;10.770;2022-12-16T09:02:07;14.32;;;4.90;;
7703;SDS011;3894;49.700;10.770;2022-12-16T09:04:53;13.95;;;6.07;;
7703;SDS011;3894;49.700;10.770;2022-12-16T09:07:37;16.25;;;6.05;;
7703;SDS011;3894;49.700;10.770;2022-12-16T09:10:21;8.98;;;3.72;;
7703;SDS011;3894;49.700;10.770;2022-12-16T09:13:06;13.23;;;4.70;;
7703;SDS011;3894;49.700;10.770;2022-12-16T09:15:55;16.88;;;6.57;;
7703;SDS011;3894;49.700;10.770;2022-12-16T09:18:40;14.77;;;6.25;;
7703;SDS011;3894;49.700;10.770;2022-12-16T09:21:24;14.57;;;6.20;;
7703;SDS011;3894;49.700;10.770;2022-12-16T09:24:08;13.40;;;5.20;;
7703;SDS011;3894;49.700;10.770;2022-12-16T09:26:52;15.70;;;6.75;;
7703;SDS011;3894;49.700;10.770;2022-12-16T09:29:36;15.18;;;6.28;;
7703;SDS011;3894;49.700;10.770;2022-12-16T09:32:20;18.08;;;5.95;;
7703;SDS011;3894;49.700;10.770;2022-12-16T09:35:15;15.95;;;5.07;;
7703;SDS011;3894;49.700;10.770;2022-12-16T09:37:59;13.20;;;5.45;;
7703;SDS011;3894;49.700;10.770;2022-12-16T09:40:43;13.43;;;4.97;;
7703;SDS011;3894;49.700;10.770;2022-12-16T09:43:35;16.67;;;6.25;;
7703;SDS011;3894;49.700;10.770;2022-12-16T09:46:50;16.27;;;6.07;;
7703;SDS011;3894;49.700;10.770;2022-12-16T09:52:36;14.50;;;5.15;;
7703;SDS011;3894;49.700;10.770;2022-12-16T09:55:41;13.65;;;5.43;;
7703;SDS011;3894;49.700;10.770;2022-12-16T09:58:28;10.70;;;4.13;;
7703;SDS011;3894;49.700;10.770;2022-12-16T10:01:18;18.15;;;6.55;;
7703;SDS011;3894;49.700;10.770;2022-12-16T10:04:05;14.82;;;5.70;;
7703;SDS011;3894;49.700;10.770;2022-12-16T10:06:58;11.40;;;5.78;;
7703;SDS011;3894;49.700;10.770;2022-12-16T10:12:59;15.93;;;4.63;;
7703;SDS011;3894;49.700;10.770;2022-12-16T10:31:12;16.42;;;5.22;;
7703;SDS011;3894;49.700;10.770;2022-12-16T10:33:58;15.70;;;5.30;;
7703;SDS011;3894;49.700;10.770;2022-12-16T10:36:42;12.60;;;5.45;;
7703;SDS011;3894;49.700;10.770;2022-12-16T10:39:36;13.45;;;6.00;;
7703;SDS011;3894;49.700;10.770;2022-12-16T10:42:26;17.27;;;5.97;;
7703;SDS011;3894;49.700;10.770;2022-12-16T10:45:20;17.25;;;6.35;;
7703;SDS011;3894;49.700;10.770;2022-12-16T10:48:22;16.00;;;5.43;;
7703;SDS011;3894;49.700;10.770;2022-12-16T10:51:13;13.35;;;5.20;;
7703;SDS011;3894;49.700;10.770;2022-12-16T10:54:04;17.42;;;6.03;;
7703;SDS011;3894;49.700;10.770;2022-12-16T10:57:12;16.77;;;6.10;;
7703;SDS011;3894;49.700;10.770;2022-12-16T11:00:36;14.07;;;6.53;;
7703;SDS011;3894;49.700;10.770;2022-12-16T11:03:28;15.68;;;5.47;;
7703;SDS011;3894;49.700;10.770;2022-12-16T11:06:15;20.13;;;7.13;;
7703;SDS011;3894;49.700;10.770;2022-12-16T11:12:13;12.20;;;5.75;;
7703;SDS011;3894;49.700;10.770;2022-12-16T11:15:08;17.13;;;7.00;;
7703;SDS011;3894;49.700;10.770;2022-12-16T11:18:12;13.55;;;6.25;;
7703;SDS011;3894;49.700;10.770;2022-12-16T11:21:12;15.18;;;6.80;;
7703;SDS011;3894;49.700;10.770;2022-12-16T11:24:03;16.27;;;5.90;;
7703;SDS011;3894;49.700;10.770;2022-12-16T11:26:56;13.27;;;5.85;;
7703;SDS011;3894;49.700;10.770;2022-12-16T11:29:52;18.83;;;4.55;;
7703;SDS011;3894;49.700;10.770;2022-12-16T11:32:48;16.30;;;6.60;;
7703;SDS011;3894;49.700;10.770;2022-12-16T11:35:37;17.35;;;7.13;;
7703;SDS011;3894;49.700;10.770;2022-12-16T11:38:26;16.05;;;6.45;;
7703;SDS011;3894;49.700;10.770;2022-12-16T11:41:30;17.10;;;5.10;;
7703;SDS011;3894;49.700;10.770;2022-12-16T11:44:19;14.55;;;5.35;;
7703;SDS011;3894;49.700;10.770;2022-12-16T11:47:12;12.75;;;4.45;;
7703;SDS011;3894;49.700;10.770;2022-12-16T11:50:19;9.27;;;4.22;;
7703;SDS011;3894;49.700;10.770;2022-12-16T11:53:04;14.10;;;4.80;;
7703;SDS011;3894;49.700;10.770;2022-12-16T11:55:57;12.65;;;5.50;;
7703;SDS011;3894;49.700;10.770;2022-12-16T11:58:44;15.05;;;5.90;;
7703;SDS011;3894;49.700;10.770;2022-12-16T12:01:32;11.50;;;4.15;;
7703;SDS011;3894;49.700;10.770;2022-12-16T12:04:22;12.63;;;5.00;;
7703;SDS011;3894;49.700;10.770;2022-12-16T12:07:53;15.35;;;5.40;;
7703;SDS011;3894;49.700;10.770;2022-12-16T12:13:48;10.48;;;4.13;;
7703;SDS011;3894;49.700;10.770;2022-12-16T12:16:58;16.67;;;5.30;;
7703;SDS011;3894;49.700;10.770;2022-12-16T12:20:13;13.45;;;5.25;;
7703;SDS011;3894;49.700;10.770;2022-12-16T12:23:09;15.50;;;5.10;;
7703;SDS011;3894;49.700;10.770;2022-12-16T12:29:02;13.38;;;4.95;;
7703;SDS011;3894;49.700;10.770;2022-12-16T12:32:09;12.65;;;4.63;;
7703;SDS011;3894;49.700;10.770;2022-12-16T12:35:11;16.63;;;5.40;;
7703;SDS011;3894;49.700;10.770;2022-12-16T12:41:26;13.43;;;5.45;;
7703;SDS011;3894;49.700;10.770;2022-12-16T12:44:25;15.43;;;5.53;;
7703;SDS011;3894;49.700;10.770;2022-12-16T12:47:31;15.93;;;6.00;;
7703;SDS011;3894;49.700;10.770;2022-12-16T12:50:23;18.05;;;5.20;;
7703;SDS011;3894;49.700;10.770;2022-12-16T12:53:49;13.05;;;4.60;;
7703;SDS011;3894;49.700;10.770;2022-12-16T13:02:49;15.77;;;6.03;;
7703;SDS011;3894;49.700;10.770;2022-12-16T13:05:43;17.85;;;6.57;;
7703;SDS011;3894;49.700;10.770;2022-12-16T13:08:31;14.40;;;5.35;;
7703;SDS011;3894;49.700;10.770;2022-12-16T13:11:23;15.43;;;5.45;;
7703;SDS011;3894;49.700;10.770;2022-12-16T13:17:14;10.80;;;5.95;;
7703;SDS011;3894;49.700;10.770;2022-12-16T13:20:04;18.88;;;6.03;;
7703;SDS011;3894;49.700;10.770;2022-12-16T13:23:21;15.00;;;5.10;;
7703;SDS011;3894;49.700;10.770;2022-12-16T13:26:19;14.23;;;5.20;;
7703;SDS011;3894;49.700;10.770;2022-12-16T13:37:56;13.30;;;4.72;;
7703;SDS011;3894;49.700;10.770;2022-12-16T13:44:10;12.55;;;5.00;;
7703;SDS011;3894;49.700;10.770;2022-12-16T13:46:55;15.00;;;4.97;;
7703;SDS011;3894;49.700;10.770;2022-12-16T13:52:37;15.13;;;4.38;;
7703;SDS011;3894;49.700;10.770;2022-12-16T13:58:43;14.35;;;5.50;;
7703;SDS011;3894;49.700;10.770;2022-12-16T14:01:43;16.38;;;5.05;;
7703;SDS011;3894;49.700;10.770;2022-12-16T14:04:39;13.82;;;5.13;;
7703;SDS011;3894;49.700;10.770;2022-12-16T14:07:29;15.48;;;6.85;;
7703;SDS011;3894;49.700;10.770;2022-12-16T14:10:29;17.38;;;6.13;;
7703;SDS011;3894;49.700;10.770;2022-12-16T14:13:26;12.98;;;5.70;;
7703;SDS011;3894;49.700;10.770;2022-12-16T14:19:32;13.57;;;4.45;;
7703;SDS011;3894;49.700;10.770;2022-12-16T14:25:33;14.77;;;5.40;;
7703;SDS011;3894;49.700;10.770;2022-12-16T14:31:27;14.23;;;6.00;;
7703;SDS011;3894;49.700;10.770;2022-12-16T14:34:15;15.00;;;5.13;;
7703;SDS011;3894;49.700;10.770;2022-12-16T14:39:57;15.63;;;5.53;;
7703;SDS011;3894;49.700;10.770;2022-12-16T14:42:42;15.00;;;5.57;;
7703;SDS011;3894;49.700;10.770;2022-12-16T14:45:33;17.33;;;5.82;;
7703;SDS011;3894;49.700;10.770;2022-12-16T14:48:23;17.45;;;5.60;;
7703;SDS011;3894;49.700;10.770;2022-12-16T14:54:17;15.40;;;5.65;;
7703;SDS011;3894;49.700;10.770;2022-12-16T14:57:09;17.65;;;5.47;;
7703;SDS011;3894;49.700;10.770;2022-12-16T15:02:52;14.85;;;4.90;;
7703;SDS011;3894;49.700;10.770;2022-12-16T15:05:39;16.15;;;5.78;;
7703;SDS011;3894;49.700;10.770;2022-12-16T15:08:25;15.90;;;6.10;;
7703;SDS011;3894;49.700;10.770;2022-12-16T15:11:11;14.43;;;5.65;;
7703;SDS011;3894;49.700;10.770;2022-12-16T15:13:59;15.73;;;6.93;;
7703;SDS011;3894;49.700;10.770;2022-12-16T15:16:45;15.88;;;6.97;;
7703;SDS011;3894;49.700;10.770;2022-12-16T15:19:48;16.30;;;5.88;;
7703;SDS011;3894;49.700;10.770;2022-12-16T15:22:35;12.82;;;5.22;;
7703;SDS011;3894;49.700;10.770;2022-12-16T15:25:21;17.88;;;6.90;;
7703;SDS011;3894;49.700;10.770;2022-12-16T15:28:24;12.27;;;5.45;;
7703;SDS011;3894;49.700;10.770;2022-12-16T15:31:53;20.73;;;7.97;;
7703;SDS011;3894;49.700;10.770;2022-12-16T15:37:14;13.82;;;6.47;;
7703;SDS011;3894;49.700;10.770;2022-12-16T15:40:03;18.23;;;6.15;;
7703;SDS011;3894;49.700;10.770;2022-12-16T15:43:00;19.42;;;6.85;;
7703;SDS011;3894;49.700;10.770;2022-12-16T15:49:50;15.70;;;5.80;;
7703;SDS011;3894;49.700;10.770;2022-12-16T15:55:23;9.05;;;3.05;;
7703;SDS011;3894;49.700;10.770;2022-12-16T15:58:26;15.90;;;5.95;;
7703;SDS011;3894;49.700;10.770;2022-12-16T16:01:13;16.58;;;7.22;;
7703;SDS011;3894;49.700;10.770;2022-12-16T16:04:00;22.73;;;9.02;;
7703;SDS011;3894;49.700;10.770;2022-12-16T16:06:46;13.05;;;5.18;;
7703;SDS011;3894;49.700;10.770;2022-12-16T16:09:33;17.77;;;5.40;;
7703;SDS011;3894;49.700;10.770;2022-12-16T16:12:19;17.13;;;6.80;;
7703;SDS011;3894;49.700;10.770;2022-12-16T16:15:05;16.27;;;5.55;;
7703;SDS011;3894;49.700;10.770;2022-12-16T16:17:54;18.55;;;4.78;;
7703;SDS011;3894;49.700;10.770;2022-12-16T16:20:41;15.30;;;6.75;;
7703;SDS011;3894;49.700;10.770;2022-12-16T16:23:25;18.35;;;7.15;;
7703;SDS011;3894;49.700;10.770;2022-12-16T16:26:10;16.05;;;5.80;;
7703;SDS011;3894;49.700;10.770;2022-12-16T16:28:57;16.77;;;6.07;;
7703;SDS011;3894;49.700;10.770;2022-12-16T16:31:42;15.05;;;6.30;;
7703;SDS011;3894;49.700;10.770;2022-12-16T16:34:26;16.40;;;6.10;;
7703;SDS011;3894;49.700;10.770;2022-12-16T16:37:14;14.60;;;5.60;;
7703;SDS011;3894;49.700;10.770;2022-12-16T16:40:17;19.02;;;7.07;;
7703;SDS011;3894;49.700;10.770;2022-12-16T16:43:13;14.90;;;5.45;;
7703;SDS011;3894;49.700;10.770;2022-12-16T16:45:58;14.40;;;5.88;;
7703;SDS011;3894;49.700;10.770;2022-12-16T16:48:43;15.50;;;6.07;;
7703;SDS011;3894;49.700;10.770;2022-12-16T16:51:27;15.50;;;6.28;;
7703;SDS011;3894;49.700;10.770;2022-12-16T16:54:11;18.40;;;6.60;;
7703;SDS011;3894;49.700;10.770;2022-12-16T16:56:55;16.73;;;6.22;;
7703;SDS011;3894;49.700;10.770;2022-12-16T16:59:39;18.63;;;6.65;;
7703;SDS011;3894;49.700;10.770;2022-12-16T17:02:23;18.15;;;6.32;;
7703;SDS011;3894;49.700;10.770;2022-12-16T17:05:08;14.27;;;7.47;;
7703;SDS011;3894;49.700;10.770;2022-12-16T17:07:54;16.52;;;7.18;;
7703;SDS011;3894;49.700;10.770;2022-12-16T17:10:38;15.00;;;5.55;;
7703;SDS011;3894;49.700;10.770;2022-12-16T17:13:22;18.33;;;7.80;;
7703;SDS011;3894;49.700;10.770;2022-12-16T17:16:07;21.38;;;7.47;;
7703;SDS011;3894;49.700;10.770;2022-12-16T17:18:56;16.00;;;6.18;;
7703;SDS011;3894;49.700;10.770;2022-12-16T17:21:41;26.70;;;7.65;;
7703;SDS011;3894;49.700;10.770;2022-12-16T17:24:25;17.73;;;7.47;;
7703;SDS011;3894;49.700;10.770;2022-12-16T17:27:17;20.60;;;7.47;;
7703;SDS011;3894;49.700;10.770;2022-12-16T17:30:05;21.67;;;7.32;;
7703;SDS011;3894;49.700;10.770;2022-12-16T17:32:55;23.85;;;8.55;;
7703;SDS011;3894;49.700;10.770;2022-12-16T17:35:40;17.30;;;7.20;;
7703;SDS011;3894;49.700;10.770;2022-12-16T17:38:24;17.75;;;6.45;;
7703;SDS011;3894;49.700;10.770;2022-12-16T17:41:08;21.88;;;8.38;;
7703;SDS011;3894;49.700;10.770;2022-12-16T17:43:52;20.92;;;7.82;;
7703;SDS011;3894;49.700;10.770;2022-12-16T17:46:36;16.52;;;6.93;;
7703;SDS011;3894;49.700;10.770;2022-12-16T17:49:20;15.82;;;6.60;;
7703;SDS011;3894;49.700;10.770;2022-12-16T17:52:04;16.70;;;7.35;;
7703;SDS011;3894;49.700;10.770;2022-12-16T17:54:48;19.75;;;7.15;;
7703;SDS011;3894;49.700;10.770;2022-12-16T17:57:32;21.05;;;7.50;;
7703;SDS011;3894;49.700;10.770;2022-12-16T18:00:17;21.95;;;7.72;;
7703;SDS011;3894;49.700;10.770;2022-12-16T18:03:01;21.20;;;6.95;;
7703;SDS011;3894;49.700;10.770;2022-12-16T18:05:45;20.33;;;8.65;;
7703;SDS011;3894;49.700;10.770;2022-12-16T18:08:30;18.48;;;7.55;;
7703;SDS011;3894;49.700;10.770;2022-12-16T18:11:15;22.50;;;7.85;;
7703;SDS011;3894;49.700;10.770;2022-12-16T18:13:59;21.42;;;7.95;;
7703;SDS011;3894;49.700;10.770;2022-12-16T18:16:43;19.05;;;7.15;;
7703;SDS011;3894;49.700;10.770;2022-12-16T18:19:27;21.65;;;8.00;;
7703;SDS011;3894;49.700;10.770;2022-12-16T18:22:11;16.85;;;7.70;;